Time;durP1;ratioP1;P1;durP2;ratioP2;P2;SDS_P1;SDS_P2;PMS_P1;PMS_P2;Temp;Humidity;BMP_temperature;BMP_pressure;BME280_temperature;BME280_humidity;BME280_pressure;Samples;Min_cycle;Max_cycle;Signal;HPM_P1;HPM_P2
2023/04/17 00:00:19;;;;;;;31.35;19.60;;;;;;;8.65;100.00;102411.22;5075773;28;20052;-60
2023/04/17 00:02:47;;;;;;;29.65;19.38;;;;;;;8.67;100.00;102409.41;5074581;28;20123;-59
2023/04/17 00:05:15;;;;;;;31.83;18.80;;;;;;;8.63;100.00;102419.13;5073715;28;20066;-58
2023/04/17 00:07:45;;;;;;;32.42;20.08;;;;;;;8.67;100.00;102408.53;5073883;28;20459;-59
2023/04/17 00:10:16;;;;;;;33.13;19.58;;;;;;;8.57;100.00;102407.97;5074202;28;20056;-59
2023/04/17 00:12:44;;;;;;;32.38;18.25;;;;;;;8.55;100.00;102412.41;5074709;28;20053;-58
2023/04/17 00:15:12;;;;;;;31.70;19.05;;;;;;;8.56;100.00;102415.00;5073606;28;20068;-59
2023/04/17 00:17:40;;;;;;;32.60;20.10;;;;;;;8.56;100.00;102412.38;5075696;28;20105;-59
2023/04/17 00:20:09;;;;;;;31.70;20.13;;;;;;;8.59;100.00;102417.53;5073290;28;20044;-59
2023/04/17 00:22:38;;;;;;;31.23;19.25;;;;;;;8.60;100.00;102413.13;5074738;28;20102;-59
2023/04/17 00:25:11;;;;;;;35.38;19.02;;;;;;;8.60;100.00;102411.38;5074746;28;20036;-60
2023/04/17 00:27:39;;;;;;;33.17;19.73;;;;;;;8.62;100.00;102411.31;5073315;28;20040;-59
2023/04/17 00:30:09;;;;;;;30.08;18.98;;;;;;;8.63;100.00;102413.91;5073228;28;20045;-59
2023/04/17 00:32:37;;;;;;;34.35;20.77;;;;;;;8.57;100.00;102418.47;5073753;28;20505;-59
2023/04/17 00:35:06;;;;;;;35.38;20.40;;;;;;;8.56;100.00;102415.00;5075553;28;20380;-59
2023/04/17 00:37:37;;;;;;;31.65;20.60;;;;;;;8.71;100.00;102407.53;5075370;28;20044;-59
2023/04/17 00:40:07;;;;;;;35.92;20.50;;;;;;;8.67;100.00;102409.41;5075388;28;20051;-59
2023/04/17 00:42:36;;;;;;;31.23;19.70;;;;;;;8.70;100.00;102406.69;5075128;28;20415;-59
2023/04/17 00:45:04;;;;;;;35.40;20.33;;;;;;;8.53;100.00;102411.59;5073398;28;20094;-60
2023/04/17 00:47:33;;;;;;;34.80;20.95;;;;;;;8.50;100.00;102409.09;5072448;28;20393;-60
2023/04/17 00:50:02;;;;;;;36.08;20.92;;;;;;;8.51;100.00;102406.41;5072632;28;20079;-60
2023/04/17 00:52:31;;;;;;;35.17;20.33;;;;;;;8.49;100.00;102410.00;5072940;28;20510;-58
2023/04/17 00:54:59;;;;;;;35.30;20.58;;;;;;;8.50;100.00;102406.47;5074657;28;20053;-58
2023/04/17 00:57:29;;;;;;;34.38;20.33;;;;;;;8.49;100.00;102404.75;5075321;28;20128;-60
2023/04/17 00:59:57;;;;;;;35.83;20.98;;;;;;;8.48;100.00;102408.28;5075340;28;20411;-59
2023/04/17 01:02:25;;;;;;;41.58;20.35;;;;;;;8.48;100.00;102408.28;5074127;28;20072;-59
2023/04/17 01:04:54;;;;;;;35.72;22.02;;;;;;;8.51;100.00;102411.66;5072469;28;20041;-59
2023/04/17 01:07:22;;;;;;;32.40;19.27;;;;;;;8.53;100.00;102409.00;5072409;28;20076;-60
2023/04/17 01:09:50;;;;;;;35.83;20.65;;;;;;;8.49;100.00;102408.22;5072471;28;20094;-60
2023/04/17 01:12:20;;;;;;;36.47;20.67;;;;;;;8.45;100.00;102406.59;5074053;28;20090;-59
2023/04/17 01:14:51;;;;;;;38.83;21.58;;;;;;;8.38;100.00;102405.03;5071173;28;20056;-59
2023/04/17 01:17:20;;;;;;;39.80;23.13;;;;;;;8.34;100.00;102406.91;5073988;28;20086;-60
2023/04/17 01:19:50;;;;;;;38.80;21.80;;;;;;;8.34;100.00;102413.91;5073435;28;20111;-59
2023/04/17 01:22:19;;;;;;;34.72;20.73;;;;;;;8.28;100.00;102413.19;5071047;28;20047;-59
2023/04/17 01:24:51;;;;;;;35.35;19.70;;;;;;;8.33;100.00;102406.94;5071893;28;20046;-59
2023/04/17 01:27:22;;;;;;;33.95;20.55;;;;;;;8.34;100.00;102411.28;5070927;28;20062;-59
2023/04/17 01:29:50;;;;;;;33.60;20.40;;;;;;;8.37;100.00;102408.56;5106277;28;20045;-59
2023/04/17 01:32:19;;;;;;;34.55;21.35;;;;;;;8.32;100.00;102408.72;5072664;28;20051;-59
2023/04/17 01:34:47;;;;;;;38.70;21.23;;;;;;;8.32;100.00;102411.34;5071927;28;20422;-55
2023/04/17 01:37:15;;;;;;;38.05;22.98;;;;;;;8.20;100.00;102416.97;5071060;28;20119;-55
2023/04/17 01:39:44;;;;;;;32.28;20.25;;;;;;;8.20;100.00;102414.34;5073980;28;20128;-54
2023/04/17 01:42:13;;;;;;;34.13;21.05;;;;;;;8.20;100.00;102416.97;5071279;28;20056;-55
2023/04/17 01:44:41;;;;;;;34.63;20.05;;;;;;;8.22;100.00;102417.75;5070460;28;20045;-56
2023/04/17 01:47:09;;;;;;;35.92;22.00;;;;;;;8.26;100.00;102417.63;5072926;28;20049;-56
2023/04/17 01:49:37;;;;;;;38.15;20.98;;;;;;;8.26;100.00;102420.25;5073749;28;20036;-54
2023/04/17 01:52:06;;;;;;;35.40;21.42;;;;;;;8.19;100.00;102418.69;5073049;28;20438;-57
2023/04/17 01:54:34;;;;;;;32.40;20.45;;;;;;;8.15;100.00;102411.84;5070031;28;20074;-54
2023/04/17 01:57:02;;;;;;;36.13;21.08;;;;;;;8.09;100.00;102412.03;5069365;28;20045;-55
2023/04/17 01:59:32;;;;;;;36.40;20.88;;;;;;;8.17;100.00;102415.28;5069735;28;20051;-54
2023/04/17 02:02:00;;;;;;;40.22;21.52;;;;;;;8.10;100.00;102411.97;5072275;28;20095;-54
2023/04/17 02:04:28;;;;;;;35.53;20.90;;;;;;;8.16;100.00;102423.19;5072435;28;20054;-55
2023/04/17 02:06:57;;;;;;;34.22;22.17;;;;;;;8.15;100.00;102416.22;5069865;28;20045;-56
2023/04/17 02:09:25;;;;;;;34.85;21.42;;;;;;;8.10;100.00;102419.00;5069231;28;20071;-56
2023/04/17 02:11:53;;;;;;;37.92;21.25;;;;;;;8.19;100.00;102426.56;5072433;28;20056;-56
2023/04/17 02:14:22;;;;;;;39.28;21.80;;;;;;;8.21;100.00;102426.53;5073065;28;20052;-54
2023/04/17 02:16:52;;;;;;;37.78;21.50;;;;;;;8.20;100.00;102425.66;5070377;28;20052;-55
2023/04/17 02:19:21;;;;;;;32.70;20.85;;;;;;;8.08;100.00;102423.41;5069771;28;20518;-55
2023/04/17 02:21:49;;;;;;;37.67;22.48;;;;;;;8.07;100.00;102425.19;5069230;28;20049;-55
2023/04/17 02:24:18;;;;;;;38.13;22.20;;;;;;;8.07;100.00;102425.19;5067953;28;20098;-56
2023/04/17 02:26:46;;;;;;;35.42;21.45;;;;;;;8.07;100.00;102425.19;5069040;28;20427;-55
2023/04/17 02:29:14;;;;;;;37.22;23.83;;;;;;;7.98;100.00;102424.59;5073140;28;20056;-55
2023/04/17 02:31:42;;;;;;;35.53;21.08;;;;;;;7.99;100.00;102426.28;5072067;28;20040;-55
2023/04/17 02:34:12;;;;;;;34.65;20.38;;;;;;;8.02;100.00;102429.69;5069311;28;20047;-56
2023/04/17 02:36:40;;;;;;;35.65;20.80;;;;;;;7.98;100.00;102424.59;5071184;28;20055;-56
2023/04/17 02:39:10;;;;;;;34.35;21.02;;;;;;;7.97;100.00;102428.13;5069114;28;20060;-54
2023/04/17 02:41:39;;;;;;;36.47;21.45;;;;;;;7.98;100.00;102430.69;5068782;28;20581;-56
2023/04/17 02:44:07;;;;;;;34.97;20.42;;;;;;;7.89;100.00;102430.94;5072706;28;20041;-56
2023/04/17 02:46:35;;;;;;;32.00;20.42;;;;;;;7.93;100.00;102427.34;5072666;28;20094;-56
2023/04/17 02:49:03;;;;;;;33.60;20.02;;;;;;;7.79;100.00;102428.59;5070671;28;20056;-57
2023/04/17 02:51:35;;;;;;;33.38;20.25;;;;;;;7.84;100.00;102431.09;5068765;28;20454;-54
2023/04/17 02:54:03;;;;;;;34.75;20.73;;;;;;;7.81;100.00;102432.94;5071940;28;20105;-56
2023/04/17 02:56:32;;;;;;;34.97;21.75;;;;;;;7.76;100.00;102427.84;5068962;28;20098;-53
2023/04/17 02:59:02;;;;;;;35.83;20.83;;;;;;;7.72;100.00;102439.28;5069368;28;20365;-56
2023/04/17 03:01:30;;;;;;;35.97;21.23;;;;;;;7.64;100.00;102431.63;5069468;28;20143;-56
2023/04/17 03:03:58;;;;;;;33.88;20.08;;;;;;;7.61;100.00;102432.56;5069611;28;20056;-56
2023/04/17 03:06:27;;;;;;;34.95;19.83;;;;;;;7.54;100.00;102430.16;5068497;28;20090;-55
2023/04/17 03:08:59;;;;;;;33.65;20.73;;;;;;;7.61;100.00;102437.81;5069425;28;20055;-55
2023/04/17 03:11:27;;;;;;;34.00;20.58;;;;;;;7.65;100.00;102433.38;5069634;28;20772;-55
2023/04/17 03:13:55;;;;;;;36.30;21.50;;;;;;;7.68;100.00;102435.91;5069348;28;20526;-55
2023/04/17 03:16:23;;;;;;;32.60;20.50;;;;;;;7.66;100.00;102435.06;5070351;28;20052;-54
2023/04/17 03:18:51;;;;;;;34.17;20.00;;;;;;;7.64;100.00;102436.03;5069481;28;20047;-54
2023/04/17 03:21:20;;;;;;;36.35;21.27;;;;;;;7.65;100.00;102437.72;5069542;28;20052;-55
2023/04/17 03:23:48;;;;;;;35.42;20.75;;;;;;;7.67;100.00;102435.94;5069205;28;20057;-56
2023/04/17 03:26:17;;;;;;;31.75;19.85;;;;;;;7.66;100.00;102440.28;5068021;28;20134;-57
2023/04/17 03:28:45;;;;;;;34.47;21.10;;;;;;;7.67;100.00;102442.03;5069443;28;20049;-53
2023/04/17 03:31:14;;;;;;;38.40;20.73;;;;;;;7.64;100.00;102433.41;5071745;28;20127;-55
2023/04/17 03:33:42;;;;;;;36.60;21.38;;;;;;;7.69;100.00;102434.13;5072572;28;20076;-54
2023/04/17 03:36:10;;;;;;;33.95;20.73;;;;;;;7.64;100.00;102436.88;5072245;28;20040;-55
2023/04/17 03:38:38;;;;;;;33.92;20.38;;;;;;;7.65;100.00;102435.97;5072136;28;20118;-55
2023/04/17 03:41:06;;;;;;;40.15;20.80;;;;;;;7.63;100.00;102434.31;5068888;28;20056;-54
2023/04/17 03:43:36;;;;;;;36.13;21.13;;;;;;;7.57;100.00;102432.72;5068646;28;20556;-55
2023/04/17 03:46:05;;;;;;;36.67;21.30;;;;;;;7.57;100.00;102433.56;5071109;28;20041;-55
2023/04/17 03:48:33;;;;;;;32.88;20.00;;;;;;;7.51;100.00;102433.75;5071085;28;20087;-55
2023/04/17 03:51:01;;;;;;;35.50;20.90;;;;;;;7.54;100.00;102436.28;5068207;28;20534;-55
2023/04/17 03:53:30;;;;;;;36.20;22.38;;;;;;;7.47;100.00;102439.94;5069942;28;20074;-55
2023/04/17 03:55:58;;;;;;;34.63;20.35;;;;;;;7.49;100.00;102435.53;5071896;28;20443;-56
2023/04/17 03:58:26;;;;;;;39.15;22.13;;;;;;;7.54;100.00;102436.28;5072123;28;20478;-55
2023/04/17 04:00:57;;;;;;;36.72;21.20;;;;;;;7.52;100.00;102447.69;5072026;28;20391;-55
2023/04/17 04:03:25;;;;;;;37.60;22.25;;;;;;;7.46;100.00;102438.25;5070602;28;20057;-54
2023/04/17 04:05:54;;;;;;;37.30;21.30;;;;;;;7.52;100.00;102445.91;5068640;28;20040;-55
2023/04/17 04:08:22;;;;;;;37.80;22.50;;;;;;;7.43;100.00;102443.53;5067747;28;20048;-55
2023/04/17 04:10:51;;;;;;;35.60;22.10;;;;;;;7.46;100.00;102446.09;5068910;28;20052;-54
2023/04/17 04:13:19;;;;;;;39.03;22.42;;;;;;;7.40;100.00;102446.25;5071179;28;20056;-56
2023/04/17 04:15:47;;;;;;;37.60;21.17;;;;;;;7.44;100.00;102450.50;5068431;28;20036;-56
2023/04/17 04:18:17;;;;;;;38.67;21.98;;;;;;;7.43;100.00;102449.66;5068282;28;20090;-53
2023/04/17 04:20:45;;;;;;;37.78;21.63;;;;;;;7.35;100.00;102451.59;5068960;28;20049;-55
2023/04/17 04:23:15;;;;;;;37.65;21.23;;;;;;;7.43;100.00;102447.03;5070766;28;20055;-55
2023/04/17 04:25:43;;;;;;;37.53;22.55;;;;;;;7.35;100.00;102445.50;5072156;28;20441;-55
2023/04/17 04:28:12;;;;;;;40.20;22.35;;;;;;;7.42;100.00;102452.31;5075380;28;20431;-55
2023/04/17 04:30:40;;;;;;;39.75;22.80;;;;;;;7.45;100.00;102452.22;5075220;28;20051;-59
2023/04/17 04:33:08;;;;;;;37.33;21.65;;;;;;;7.47;100.00;102454.78;5074185;28;20114;-59
2023/04/17 04:35:38;;;;;;;37.28;21.48;;;;;;;7.42;100.00;102453.16;5073124;28;20079;-59
2023/04/17 04:38:06;;;;;;;41.42;23.33;;;;;;;7.37;100.00;102452.41;5075048;28;20044;-59
2023/04/17 04:40:37;;;;;;;39.35;22.90;;;;;;;7.40;100.00;102457.59;5075218;28;20123;-59
2023/04/17 04:43:06;;;;;;;39.80;22.67;;;;;;;7.43;100.00;102456.63;5075656;28;20508;-59
2023/04/17 04:45:34;;;;;;;40.10;23.80;;;;;;;7.38;100.00;102455.91;5075222;28;20109;-58
2023/04/17 04:48:03;;;;;;;39.97;23.23;;;;;;;7.38;100.00;102451.53;5075243;28;20059;-59
2023/04/17 04:50:31;;;;;;;42.80;23.00;;;;;;;7.37;100.00;102459.41;5075411;28;20119;-59
2023/04/17 04:53:01;;;;;;;40.13;23.77;;;;;;;7.36;100.00;102447.22;5074795;28;20048;-58
2023/04/17 04:55:29;;;;;;;42.97;23.20;;;;;;;7.44;100.00;102459.22;5072600;28;20048;-60
2023/04/17 04:57:57;;;;;;;41.22;23.55;;;;;;;7.43;100.00;102464.47;5072468;28;20049;-59
2023/04/17 05:00:26;;;;;;;43.80;23.00;;;;;;;7.39;100.00;102462.84;5074407;28;20507;-59
2023/04/17 05:02:54;;;;;;;43.25;24.05;;;;;;;7.36;100.00;102461.19;5074888;28;20447;-59
2023/04/17 05:05:22;;;;;;;41.78;24.25;;;;;;;7.35;100.00;102458.59;5074954;28;20068;-58
2023/04/17 05:07:52;;;;;;;41.20;24.23;;;;;;;7.39;100.00;102468.06;5074135;28;20033;-59
2023/04/17 05:10:21;;;;;;;41.38;24.70;;;;;;;7.35;100.00;102467.31;5072363;28;20063;-59
2023/04/17 05:12:50;;;;;;;41.78;23.63;;;;;;;7.39;100.00;102466.34;5073610;28;20437;-59
2023/04/17 05:15:18;;;;;;;42.85;23.65;;;;;;;7.39;100.00;102473.31;5074803;28;20387;-59
2023/04/17 05:17:46;;;;;;;41.92;23.13;;;;;;;7.50;100.00;102475.66;5074666;28;20043;-59
2023/04/17 05:20:15;;;;;;;44.42;23.40;;;;;;;7.45;100.00;102474.00;5072346;28;20755;-59
2023/04/17 05:22:43;;;;;;;41.80;23.15;;;;;;;7.50;100.00;102476.53;5073097;28;20051;-59
2023/04/17 05:25:11;;;;;;;42.95;25.02;;;;;;;7.59;100.00;102478.91;5074593;28;20048;-59
2023/04/17 05:27:40;;;;;;;44.55;24.73;;;;;;;7.53;100.00;102484.28;5074195;28;20539;-58
2023/04/17 05:30:10;;;;;;;43.53;24.20;;;;;;;7.51;100.00;102486.09;5074177;28;20048;-58
2023/04/17 05:32:38;;;;;;;44.42;24.13;;;;;;;7.48;100.00;102482.69;5074003;28;20036;-59
2023/04/17 05:35:06;;;;;;;41.80;24.20;;;;;;;7.48;100.00;102488.78;5073396;28;20364;-58
2023/04/17 05:37:34;;;;;;;47.53;24.75;;;;;;;7.50;100.00;102481.75;5074527;28;20434;-58
2023/04/17 05:40:05;;;;;;;44.17;23.88;;;;;;;7.54;100.00;102487.75;5074558;28;20052;-59
2023/04/17 05:42:34;;;;;;;43.15;23.67;;;;;;;7.68;100.00;102490.88;5074128;28;20061;-58
2023/04/17 05:45:04;;;;;;;41.92;24.40;;;;;;;7.57;100.00;102483.31;5074030;28;20051;-58
2023/04/17 05:47:32;;;;;;;39.95;23.33;;;;;;;7.56;100.00;102489.44;5071724;28;20135;-58
2023/04/17 05:50:00;;;;;;;43.00;23.90;;;;;;;7.65;100.00;102484.84;5072778;28;20090;-58
2023/04/17 05:52:29;;;;;;;40.13;23.38;;;;;;;7.63;100.00;102490.16;5072861;28;20102;-60
2023/04/17 05:54:57;;;;;;;44.75;25.10;;;;;;;7.56;100.00;102489.44;5071471;28;20048;-58
2023/04/17 05:57:25;;;;;;;43.42;24.65;;;;;;;7.58;100.00;102494.63;5073230;28;20048;-59
2023/04/17 05:59:53;;;;;;;42.67;23.95;;;;;;;7.64;100.00;102491.88;5071637;28;20499;-59
2023/04/17 06:02:23;;;;;;;48.22;24.33;;;;;;;7.64;100.00;102502.34;5071588;28;20048;-58
2023/04/17 06:04:51;;;;;;;43.15;24.67;;;;;;;7.63;100.00;102505.00;5070251;28;20075;-55
2023/04/17 06:07:19;;;;;;;43.42;23.80;;;;;;;7.72;100.00;102507.38;5070849;28;20096;-59
2023/04/17 06:09:47;;;;;;;41.40;24.13;;;;;;;7.72;100.00;102510.00;5070895;28;20047;-59
2023/04/17 06:12:15;;;;;;;43.47;24.25;;;;;;;7.71;100.00;102506.50;5072699;28;20079;-56
2023/04/17 06:14:43;;;;;;;44.63;25.00;;;;;;;7.71;100.00;102516.97;5070727;28;20040;-60
2023/04/17 06:17:12;;;;;;;46.85;25.35;;;;;;;7.75;100.00;102518.63;5071175;28;20068;-59
2023/04/17 06:19:41;;;;;;;42.95;24.50;;;;;;;7.75;100.00;102509.91;5073699;28;20044;-59
2023/04/17 06:22:10;;;;;;;46.17;26.10;;;;;;;7.66;100.00;102512.78;5071213;28;20059;-59
2023/04/17 06:24:38;;;;;;;45.40;24.42;;;;;;;7.72;100.00;102512.63;5070886;28;20036;-61
2023/04/17 06:27:06;;;;;;;48.30;27.40;;;;;;;7.71;100.00;102516.13;5070611;28;20055;-60
2023/04/17 06:29:34;;;;;;;44.17;24.90;;;;;;;7.71;100.00;102516.13;5071240;28;20068;-61
2023/04/17 06:32:02;;;;;;;45.33;24.73;;;;;;;7.76;100.00;102514.25;5070793;28;20044;-58
2023/04/17 06:34:30;;;;;;;44.75;24.40;;;;;;;7.71;100.00;102514.38;5071065;28;20075;-58
2023/04/17 06:37:00;;;;;;;49.22;26.88;;;;;;;7.73;100.00;102514.31;5072702;28;20049;-59
2023/04/17 06:39:30;;;;;;;45.05;23.98;;;;;;;7.75;100.00;102516.00;5073343;28;20040;-59
2023/04/17 06:41:58;;;;;;;46.08;25.35;;;;;;;7.82;100.00;102528.94;5071727;28;20781;-58
2023/04/17 06:44:26;;;;;;;47.65;26.08;;;;;;;7.77;100.00;102531.66;5071040;28;20058;-58
2023/04/17 06:46:55;;;;;;;45.83;25.25;;;;;;;7.79;100.00;102530.75;5072292;28;20040;-59
2023/04/17 06:49:23;;;;;;;50.67;26.02;;;;;;;7.84;100.00;102535.00;5073030;28;20376;-59
2023/04/17 06:51:51;;;;;;;48.92;27.15;;;;;;;7.82;100.00;102540.28;5072979;28;20055;-59
2023/04/17 06:54:20;;;;;;;47.20;25.60;;;;;;;7.84;100.00;102540.22;5072933;28;20388;-59
2023/04/17 06:56:48;;;;;;;47.25;26.65;;;;;;;7.89;100.00;102541.81;5072987;28;20047;-58
2023/04/17 06:59:17;;;;;;;48.67;26.25;;;;;;;8.01;100.00;102540.63;5071196;28;20040;-59
2023/04/17 07:01:45;;;;;;;43.28;24.70;;;;;;;8.01;100.00;102539.78;5070872;28;20048;-59
2023/04/17 07:04:13;;;;;;;46.78;26.75;;;;;;;8.03;100.00;102537.97;5070828;28;20040;-59
2023/04/17 07:06:42;;;;;;;48.30;26.67;;;;;;;8.07;100.00;102543.09;5070611;28;20036;-59
2023/04/17 07:09:10;;;;;;;45.47;25.92;;;;;;;8.13;100.00;102540.31;5071218;28;20040;-61
2023/04/17 07:11:40;;;;;;;46.78;25.10;;;;;;;8.05;100.00;102546.66;5071078;28;20147;-59
2023/04/17 07:14:08;;;;;;;42.35;25.27;;;;;;;8.15;100.00;102552.50;5070224;28;20049;-58
2023/04/17 07:16:39;;;;;;;47.63;25.95;;;;;;;8.13;100.00;102561.25;5070391;28;20052;-58
2023/04/17 07:19:08;;;;;;;40.10;23.40;;;;;;;8.17;100.00;102558.59;5070919;28;20068;-59
2023/04/17 07:21:36;;;;;;;46.13;26.55;;;;;;;8.13;100.00;102561.25;5070475;28;20041;-59
2023/04/17 07:24:04;;;;;;;40.42;24.80;;;;;;;8.22;100.00;102570.66;5070316;28;20407;-59
2023/04/17 07:26:32;;;;;;;47.85;26.77;;;;;;;8.33;100.00;102564.25;5070231;28;20055;-59
2023/04/17 07:29:02;;;;;;;47.80;27.65;;;;;;;8.31;100.00;102579.16;5070642;28;20078;-59
2023/04/17 07:31:30;;;;;;;44.88;25.38;;;;;;;8.34;100.00;102571.22;5070099;28;20076;-59
2023/04/17 07:33:59;;;;;;;42.25;25.55;;;;;;;8.39;100.00;102570.16;5071057;28;20494;-58
2023/04/17 07:36:28;;;;;;;44.20;25.88;;;;;;;8.41;100.00;102571.00;5071292;28;20641;-59
2023/04/17 07:38:56;;;;;;;48.38;27.38;;;;;;;8.44;100.00;102577.91;5070127;28;20044;-59
2023/04/17 07:41:25;;;;;;;41.40;26.13;;;;;;;8.43;100.00;102576.19;5068194;28;20067;-58
2023/04/17 07:43:53;;;;;;;41.85;25.88;;;;;;;8.46;100.00;102579.59;5070191;28;20037;-58
2023/04/17 07:46:24;;;;;;;47.45;26.00;;;;;;;8.50;100.00;102579.53;5069836;28;20060;-59
2023/04/17 07:48:52;;;;;;;44.22;25.55;;;;;;;8.59;100.00;102574.88;5070569;28;20086;-59
2023/04/17 07:51:20;;;;;;;43.17;25.70;;;;;;;8.70;100.00;102574.56;5069835;28;20474;-59
2023/04/17 07:53:48;;;;;;;45.95;27.10;;;;;;;8.70;100.00;102576.31;5070510;28;20094;-58
2023/04/17 07:56:19;;;;;;;45.92;26.95;;;;;;;8.78;100.00;102580.44;5070260;28;20045;-58
2023/04/17 07:58:50;;;;;;;45.38;26.90;;;;;;;8.74;100.00;102578.81;5073132;28;20037;-59
2023/04/17 08:01:19;;;;;;;48.28;27.35;;;;;;;8.85;100.00;102586.38;5073969;28;20067;-58
2023/04/17 08:03:50;;;;;;;47.50;27.45;;;;;;;8.85;100.00;102578.50;5074206;28;20044;-59
2023/04/17 08:06:19;;;;;;;45.90;26.65;;;;;;;8.92;100.00;102584.41;5075675;28;20427;-59
2023/04/17 08:08:47;;;;;;;46.28;27.30;;;;;;;8.98;100.00;102583.38;5076177;28;20372;-58
2023/04/17 08:11:15;;;;;;;43.20;25.63;;;;;;;9.07;100.00;102585.72;5075109;28;20044;-58
2023/04/17 08:13:43;;;;;;;44.45;26.30;;;;;;;9.12;100.00;102575.91;5073787;28;20032;-60
2023/04/17 08:16:12;;;;;;;48.97;27.10;;;;;;;9.22;100.00;102587.00;5073911;28;20052;-59
2023/04/17 08:18:40;;;;;;;42.05;25.10;;;;;;;9.30;100.00;102592.88;5075409;28;20070;-59
2023/04/17 08:21:10;;;;;;;41.97;26.80;;;;;;;9.42;100.00;102595.09;5073644;28;20045;-59
2023/04/17 08:23:39;;;;;;;40.45;26.00;;;;;;;9.41;100.00;102600.41;5073990;28;20502;-59
2023/04/17 08:26:07;;;;;;;42.67;26.70;;;;;;;9.48;100.00;102591.41;5074045;28;20071;-59
2023/04/17 08:28:35;;;;;;;37.83;24.85;;;;;;;9.62;100.00;102594.41;5073271;28;20430;-60
2023/04/17 08:31:04;;;;;;;37.97;24.27;;;;;;;9.76;100.00;102600.97;5073943;28;20415;-60
2023/04/17 08:33:32;;;;;;;39.35;24.77;;;;;;;9.80;100.00;102597.34;5073594;28;20237;-59
2023/04/17 08:36:00;;;;;;;45.40;27.08;;;;;;;9.76;100.00;102603.59;5073504;28;20060;-60
2023/04/17 08:38:32;;;;;;;40.70;24.67;;;;;;;9.80;100.00;102597.34;5073720;28;20044;-59
2023/04/17 08:41:07;;;;;;;43.03;26.50;;;;;;;9.88;100.00;102594.47;5073602;28;20052;-60
2023/04/17 08:43:36;;;;;;;39.30;26.58;;;;;;;9.95;100.00;102596.84;5073472;28;20044;-59
2023/04/17 08:46:07;;;;;;;39.25;25.92;;;;;;;10.04;100.00;102594.78;5073373;28;20526;-59
2023/04/17 08:48:37;;;;;;;40.55;25.75;;;;;;;10.07;100.00;102584.16;5073951;28;20075;-59
2023/04/17 08:51:06;;;;;;;43.95;27.00;;;;;;;10.11;100.00;102586.63;5073447;28;20132;-59
2023/04/17 08:53:36;;;;;;;39.08;25.23;;;;;;;10.32;100.00;102594.66;5073305;28;20044;-59
2023/04/17 08:56:06;;;;;;;39.20;25.63;;;;;;;10.41;100.00;102582.97;5073183;28;20053;-60
2023/04/17 08:58:39;;;;;;;40.90;26.92;;;;;;;10.57;100.00;102583.28;5074667;28;20530;-59
2023/04/17 09:01:09;;;;;;;36.65;24.85;;;;;;;10.57;100.00;102583.28;5074657;28;20045;-60
2023/04/17 09:03:42;;;;;;;37.38;24.27;;;;;;;10.70;100.00;102589.78;5073494;28;20058;-60
2023/04/17 09:06:11;;;;;;;37.55;24.40;;;;;;;10.90;100.00;102590.81;5073003;28;20098;-60
2023/04/17 09:08:55;;;;;;;37.47;25.45;;;;;;;10.90;100.00;102591.66;5072261;28;20040;-60
2023/04/17 09:11:24;;;;;;;36.17;23.25;;;;;;;11.09;100.00;102583.88;5072899;28;20056;-60
2023/04/17 09:13:52;;;;;;;37.35;25.17;;;;;;;11.22;100.00;102591.28;5072663;28;20098;-60
2023/04/17 09:16:23;;;;;;;36.97;25.23;;;;;;;11.32;100.00;102587.38;5073248;28;20819;-60
2023/04/17 09:18:51;;;;;;;36.03;24.40;;;;;;;11.46;100.00;102597.34;5072651;28;20099;-60
2023/04/17 09:21:19;;;;;;;33.40;22.98;;;;;;;11.48;100.00;102598.16;5072642;28;20070;-60
2023/04/17 09:23:53;;;;;;;39.08;25.02;;;;;;;11.48;100.00;102599.00;5072899;28;20115;-60
2023/04/17 09:26:25;;;;;;;39.30;25.95;;;;;;;11.52;100.00;102597.13;5073148;28;20040;-57
2023/04/17 09:29:02;;;;;;;36.75;24.55;;;;;;;11.72;100.00;102598.06;5072540;28;20461;-60
2023/04/17 09:31:33;;;;;;;35.20;24.48;;;;;;;11.82;100.00;102597.59;5072958;28;20052;-60
2023/04/17 09:34:03;;;;;;;32.42;22.90;;;;;;;11.88;100.00;102598.28;5072551;28;20075;-60
2023/04/17 09:36:32;;;;;;;35.00;23.02;;;;;;;12.04;100.00;102596.72;5074534;28;20507;-60
2023/04/17 09:39:04;;;;;;;35.25;22.63;;;;;;;11.96;100.00;102602.31;5074610;28;20041;-60
2023/04/17 09:41:35;;;;;;;37.77;24.07;;;;;;;12.14;100.00;102592.72;5074474;28;20064;-60
2023/04/17 09:44:05;;;;;;;37.17;24.38;;;;;;;12.28;100.00;102596.53;5074190;28;20453;-60
2023/04/17 09:46:36;;;;;;;34.25;23.13;;;;;;;12.32;100.00;102606.91;5072638;28;20048;-60
2023/04/17 09:49:11;;;;;;;34.53;22.90;;;;;;;12.41;100.00;102604.78;5072723;28;20037;-60
2023/04/17 09:51:40;;;;;;;35.10;23.27;;;;;;;12.36;100.00;102604.13;5072973;28;20087;-60
2023/04/17 09:54:14;;;;;;;32.53;21.85;;;;;;;12.36;100.00;102601.50;5074136;28;20044;-60
2023/04/17 09:56:44;;;;;;;30.83;22.23;;;;;;;12.38;100.00;102604.91;5072764;28;20431;-60
2023/04/17 09:59:14;;;;;;;35.03;23.30;;;;;;;12.39;100.00;102603.97;5072889;28;20045;-60
2023/04/17 10:01:46;;;;;;;31.83;21.80;;;;;;;12.38;100.00;102611.06;5074221;28;20124;-60
2023/04/17 10:04:14;;;;;;;30.00;21.60;;;;;;;12.49;100.00;102607.94;5073287;28;20131;-60
2023/04/17 10:06:43;;;;;;;29.00;20.65;;;;;;;12.62;100.00;102602.94;5072406;28;20507;-60
2023/04/17 10:09:13;;;;;;;30.92;21.02;;;;;;;12.53;100.00;102601.59;5072021;28;20056;-60
2023/04/17 10:11:43;;;;;;;31.77;22.83;;;;;;;12.43;100.00;102602.91;5072202;28;20040;-60
2023/04/17 10:14:17;;;;;;;32.42;21.52;;;;;;;12.72;100.00;102598.97;5072197;28;20040;-60
2023/04/17 10:16:46;;;;;;;32.72;23.05;;;;;;;12.83;100.00;102590.53;5071727;28;20055;-60
2023/04/17 10:19:29;;;;;;;30.85;21.38;;;;;;;12.94;100.00;102593.53;5072540;28;20052;-60
2023/04/17 10:22:29;;;;;;;32.35;21.13;;;;;;;13.20;100.00;102591.41;5070447;28;20102;-60
2023/04/17 10:25:18;;;;;;;27.50;19.40;;;;;;;13.38;100.00;102591.47;5073807;28;20094;-61
2023/04/17 10:27:53;;;;;;;32.20;19.65;;;;;;;13.41;100.00;102599.25;5073498;28;20056;-60
2023/04/17 10:30:22;;;;;;;26.67;18.33;;;;;;;13.55;100.00;102599.41;5073420;28;20047;-59
2023/04/17 10:33:20;;;;;;;26.08;19.00;;;;;;;13.57;100.00;102596.72;5072725;28;20059;-60
2023/04/17 10:35:49;;;;;;;26.35;17.90;;;;;;;13.56;100.00;102590.53;5071502;28;20570;-60
2023/04/17 10:38:31;;;;;;;27.10;18.80;;;;;;;13.59;100.00;102587.75;5072844;28;20396;-60
2023/04/17 10:41:04;;;;;;;27.38;18.88;;;;;;;13.64;100.00;102593.66;5071719;28;20044;-59
2023/04/17 10:43:32;;;;;;;26.13;19.33;;;;;;;13.72;100.00;102595.94;5071501;28;20049;-60
2023/04/17 10:46:05;;;;;;;25.30;18.65;;;;;;;13.74;100.00;102594.03;5071422;28;20056;-60
2023/04/17 10:48:35;;;;;;;24.95;18.65;;;;;;;13.85;100.00;102588.22;5071377;28;20066;-59
2023/04/17 10:51:36;;;;;;;28.80;18.40;;;;;;;14.11;100.00;102591.28;5071161;28;20048;-59
2023/04/17 10:54:08;;;;;;;29.45;18.83;;;;;;;14.29;100.00;102586.81;5073454;28;20468;-60
2023/04/17 10:56:41;;;;;;;25.35;17.63;;;;;;;14.56;100.00;102579.22;5073390;28;20044;-60
2023/04/17 10:59:10;;;;;;;25.38;18.60;;;;;;;14.77;100.00;102584.28;5072992;28;20135;-60
2023/04/17 11:01:56;;;;;;;24.23;18.08;;;;;;;15.06;100.00;102573.84;5073232;28;20110;-60
2023/04/17 11:04:28;;;;;;;25.35;17.90;;;;;;;15.26;100.00;102573.56;5072901;28;20045;-60
2023/04/17 11:06:57;;;;;;;23.15;17.55;;;;;;;15.38;100.00;102572.84;5071766;28;20174;-59
2023/04/17 11:09:26;;;;;;;23.73;17.52;;;;;;;15.53;100.00;102570.25;5070763;28;20083;-60
2023/04/17 11:11:59;;;;;;;22.80;16.65;;;;;;;15.67;100.00;102569.44;5070337;28;20495;-59
2023/04/17 11:14:27;;;;;;;24.58;16.05;;;;;;;15.90;100.00;102570.72;5071630;28;20442;-60
2023/04/17 11:16:55;;;;;;;21.67;15.32;;;;;;;15.91;98.96;102566.25;5071131;28;20262;-60